Terminal Aerodrome Forecast
Issued by NWS Atlanta, GA

Home | Current Version | Previous Version | Text Only | Print | Product List | Glossary On
Versions: 1 2 3 4 5 6 7 8 9 10 11 12 13 14 15 16 17 18 19 20 21 22 23 24 25 26 27 28 29 30 31 32 33 34 35 36 37
634
FTUS42 KFFC 191720
TAFATL
TAF
KATL 191720Z 1918/2024 31007KT P6SM SCT045
     FM200100 29003KT P6SM SCT250
     FM201200 01004KT P6SM FEW250
     FM201500 09005KT P6SM FEW035
     FM201800 11006KT P6SM SCT045=

USA.gov is the U.S. government's official web portal to all federal, state and local government web resources and services.